Polvijaervi, Suomi

17. marraskuuta 2017 klo 19:32 (EET) (GMT +0200)
Joensuu | | Change Station

Kork 384 ft 62.67 °N, 29.63 °E | Updated 12 minutes ago

Lumisadetta
Lumisadetta
37 °F
Tuntuu kuin 30 °F
N
12
Tuuli Suunnaltaan vaihteleva Tuuli ilmansuunnasta Etelän ja lounaan välinen

Tänään
Korkea -- | Matala -- °F
--% Sateen mahd.
Eilen
Korkea -- | Matala -- °F
Precip. -- tuumaa
Ilmanpaine 29.36 tuumaa
Näkyvyys 6.2 mailia
Pilviä Täysin pilvistä 1300 ft
Tuulen hyytävyys 30 °F
Kastepiste 34 °F
Ilmankosteus 87%
Sademäärä 0.00 tuumaa
Lumensyvyys Ei saatavilla
8:26 AM 3:07 PM
Vähenevä sirppi, 1% visible
METAR EFJO 171720Z AUTO 21010KT 180V260 9999 -SHRA OVC013 03/01 Q0994
Ilmanpaine 29.36 tuumaa
Näkyvyys 6.2 mailia
Pilviä Täysin pilvistä 1300 ft
Tuulen hyytävyys 30 °F
Kastepiste 34 °F
Ilmankosteus 87%
Sademäärä 0.00 tuumaa
Lumensyvyys Ei saatavilla
8:26 AM 3:07 PM
Vähenevä sirppi, 1% visible
METAR EFJO 171720Z AUTO 21010KT 180V260 9999 -SHRA OVC013 03/01 Q0994

Get Severe Weather Alerts

Thanks for signing up!

Be on the lookout for a verification email in your inbox.

You'll start receiving the daily forecast at 6 AM.

×

10-Day Weather Forecast

×

Almanac

Tähtitiede

Nov. 17, 2017 Nousuaika Laskuaika
Valoisa aika
Porvarillinen hämärä
Nauttinen hämärä
Astronominen hämärä
Kuu
Näkyvän valon pituus
Päivän pituus
Tomorrow will be .
, % of the Moon is Illuminated

Tämän päivän ennätykset

Country Highs Country Lows

Community

WunderPhotos

Category 6

Welcome to Category 6. This is the collective home for Weather Underground's featured writeups by Dr. Jeff Masters (right), Bob Henson (left), Chris Burt, and other regular contributors.

Nearby

Ilmanlaatu

  Ilmanlaatu AQ Index Pollutant
Not available.

Lumensyvyys

Station Depth Korkeus

Maanjäristysaktiivisuus

Paikkakunta Distance Mag. Time & Date
Minimum magnitude displayed is 2.5.

Coastal Water Temperatures

Paikka Lämpötila

Stations

Lähimmät sääasemat

Aseman sijainti Lämpötila Tuulen hyytävyys Kastepiste Ilmankosteus Tuuli Precip. Kork Päivitetty Tyyppi